Flight Track Log - Related Links

Times and Time Zones

All times are in EDT time to prevent confusion due to time zone crossing. See the AFR3974 flight status page for this flight to view local times or setup timezone preferences in your user account.

Time Position Orientation Groundspeed Altitude Reporting Facility
EDT Latitude Longitude Course Direction KTS MPH feet Rate Location/Type
Thu 04:35:48 PM 14.4860 -60.8400 137° Southeast 270 311 6,800  Level FlightAware ADS-B
Thu 04:36:08 PM 14.4640 -60.8190 137° Southeast 272 313 7,900 2,400 Climbing FlightAware ADS-B
Thu 04:36:48 PM 14.4300 -60.7860 137° Southeast 283 326 9,200 1,964 Climbing FlightAware ADS-B
Thu 04:37:03 PM 14.4140 -60.7700 136° Southeast 290 334 9,700 1,527 Climbing FlightAware ADS-B
Thu 04:37:43 PM 14.3730 -60.7300 137° Southeast 313 360 10,600 1,059 Climbing FlightAware ADS-B
Thu 04:38:28 PM 14.3330 -60.6920 137° Southeast 348 400 11,200 1,533 Climbing FlightAware ADS-B
Thu 04:39:13 PM 14.2730 -60.6340 137° Southeast 355 409 12,900 1,320 Climbing FlightAware ADS-B
Thu 04:40:08 PM 14.2180 -60.5790 136° Southeast 358 412 13,400 1,860 Climbing FlightAware ADS-B
Thu 04:40:53 PM 14.1500 -60.5150 138° Southeast 370 426 16,000 2,905 Climbing FlightAware ADS-B
Thu 04:41:43 PM 14.0850 -60.4520 137° Southeast 366 421 18,000 1,958 Climbing FlightAware ADS-B
Thu 04:42:28 PM 14.0300 -60.4000 137° Southeast 373 429 19,100 1,440 Climbing FlightAware ADS-B
Thu 04:43:23 PM 13.9570 -60.3280 136° Southeast 384 442 20,400 1,263 Climbing FlightAware ADS-B
Thu 04:44:03 PM 13.9150 -60.2880 137° Southeast 391 450 21,100 1,271 Climbing FlightAware ADS-B
Thu 04:44:48 PM 13.8440 -60.2200 137° Southeast 396 456 22,200 1,200 Climbing FlightAware ADS-B
Thu 04:45:28 PM 13.7960 -60.1740 137° Southeast 404 465 22,800 1,059 Climbing FlightAware ADS-B
Thu 04:46:13 PM 13.7260 -60.1070 137° Southeast 410 472 23,700 1,059 Climbing FlightAware ADS-B
Thu 04:46:53 PM 13.6710 -60.0540 137° Southeast 418 481 24,300 800 Climbing FlightAware ADS-B
Thu 04:47:28 PM 13.6240 -60.0090 137° Southeast 427 491 24,700 750 Climbing FlightAware ADS-B
Thu 04:48:13 PM 13.5550 -59.9420 137° Southeast 435 501 25,300 933 Climbing FlightAware ADS-B
Thu 04:48:58 PM 13.4930 -59.8830 137° Southeast 436 502 26,100 933 Climbing FlightAware ADS-B
Thu 04:49:43 PM 13.4380 -59.8310 137° Southeast 436 502 26,700 780 Climbing FlightAware ADS-B
Thu 04:50:38 PM 13.3510 -59.7480 137° Southeast 443 510 27,400 800 Climbing FlightAware ADS-B
Thu 04:51:13 PM 13.2930 -59.6920 137° Southeast 447 514 27,900 750 Climbing FlightAware ADS-B
Thu 04:51:58 PM 13.2310 -59.6330 137° Southeast 452 520 28,400 706 Climbing FlightAware ADS-B
Thu 04:52:38 PM 13.1700 -59.5740 137° Southeast 456 525 28,900 505 Climbing FlightAware ADS-B
Thu 04:53:33 PM 13.0910 -59.4990 137° Southeast 460 529 29,200 171 Climbing FlightAware ADS-B
Thu 04:54:23 PM 13.0250 -59.4360 137° Southeast 460 529 29,200  Level FlightAware ADS-B
Thu 04:55:03 PM 12.9720 -59.3850 137° Southeast 460 529 29,200  Level FlightAware ADS-B
Thu 04:55:43 PM 12.9190 -59.3340 137° Southeast 460 529 29,200  Level FlightAware ADS-B
Thu 04:56:23 PM 12.8660 -59.2840 137° Southeast 460 529 29,200  Level FlightAware ADS-B
Thu 04:57:03 PM 12.8130 -59.2330 137° Southeast 460 529 29,200  Level FlightAware ADS-B
Thu 04:59:00 PM 12.6512 -59.0892 139° Southeast  Level Estimated
Thu 05:00:00 PM 12.5683 -59.0156 139° Southeast  Level Estimated
Thu 05:01:00 PM 12.4853 -58.9420 139° Southeast  Level Estimated
Thu 05:02:00 PM 12.4023 -58.8684 139° Southeast  Level Estimated
Thu 05:03:00 PM 12.3192 -58.7949 139° Southeast  Level Estimated
Thu 05:04:00 PM 12.2361 -58.7215 139° Southeast  Level Estimated
Thu 05:05:00 PM 12.1531 -58.6480 139° Southeast  Level Estimated
Thu 05:06:00 PM 12.0700 -58.5747 139° Southeast  Level Estimated
Thu 05:07:00 PM 11.9868 -58.5013 139° Southeast  Level Estimated
Thu 05:08:00 PM 11.9037 -58.4281 139° Southeast  Level Estimated
Thu 05:09:00 PM 11.8205 -58.3548 139° Southeast  Level Estimated
Thu 05:10:00 PM 11.7374 -58.2816 139° Southeast  Level Estimated
Thu 05:11:00 PM 11.6542 -58.2085 139° Southeast  Level Estimated
Thu 05:12:00 PM 11.5710 -58.1354 139° Southeast  Level Estimated
Thu 05:13:00 PM 11.4878 -58.0623 139° Southeast  Level Estimated
Thu 05:14:00 PM 11.4045 -57.9893 139° Southeast  Level Estimated
Thu 05:15:00 PM 11.3212 -57.9163 139° Southeast  Level Estimated
Thu 05:16:00 PM 11.2380 -57.8434 139° Southeast  Level Estimated
Thu 05:17:00 PM 11.1546 -57.7705 139° Southeast  Level Estimated
Thu 05:18:00 PM 11.0713 -57.6977 139° Southeast  Level Estimated
Thu 05:19:00 PM 10.9880 -57.6249 139° Southeast  Level Estimated
Thu 05:20:00 PM 10.9046 -57.5521 139° Southeast  Level Estimated
Thu 05:21:00 PM 10.8213 -57.4794 139° Southeast  Level Estimated
Thu 05:22:00 PM 10.7379 -57.4067 139° Southeast  Level Estimated
Thu 05:23:00 PM 10.6545 -57.3340 139° Southeast  Level Estimated
Thu 05:24:00 PM 10.5711 -57.2614 139° Southeast  Level Estimated
Thu 05:25:00 PM 10.4876 -57.1889 139° Southeast  Level Estimated
Thu 05:26:00 PM 10.4042 -57.1163 139° Southeast  Level Estimated
Thu 05:27:00 PM 10.3207 -57.0439 139° Southeast  Level Estimated
Thu 05:28:00 PM 10.2372 -56.9714 140° Southeast  Level Estimated
Thu 05:29:00 PM 10.1537 -56.8990 140° Southeast  Level Estimated
Thu 05:30:00 PM 10.0702 -56.8266 140° Southeast  Level Estimated
Thu 05:31:00 PM 9.9867 -56.7543 140° Southeast  Level Estimated
Thu 05:32:00 PM 9.9031 -56.6820 140° Southeast  Level Estimated
Thu 05:33:00 PM 9.8195 -56.6097 140° Southeast  Level Estimated
Thu 05:34:00 PM 9.7360 -56.5375 140° Southeast  Level Estimated
Thu 05:35:00 PM 9.6524 -56.4653 140° Southeast  Level Estimated
Thu 05:36:00 PM 9.5688 -56.3932 140° Southeast  Level Estimated
Thu 05:37:00 PM 9.4851 -56.3210 140° Southeast  Level Estimated
Thu 05:38:00 PM 9.4015 -56.2490 140° Southeast  Level Estimated
Thu 05:39:00 PM 9.3178 -56.1769 140° Southeast  Level Estimated
Thu 05:40:00 PM 9.2341 -56.1049 140° Southeast  Level Estimated
Thu 05:41:00 PM 9.1505 -56.0329 140° Southeast  Level Estimated
Thu 05:42:00 PM 9.0668 -55.9610 140° Southeast  Level Estimated
Thu 05:43:00 PM 8.9831 -55.8891 140° Southeast  Level Estimated
Thu 05:44:00 PM 8.8993 -55.8172 140° Southeast  Level Estimated
Thu 05:45:00 PM 8.8156 -55.7453 140° Southeast  Level Estimated
Thu 05:46:00 PM 8.7318 -55.6735 140° Southeast  Level Estimated
Thu 05:47:00 PM 8.6481 -55.6018 140° Southeast  Level Estimated
Thu 05:48:00 PM 8.5643 -55.5300 140° Southeast  Level Estimated
Thu 05:49:00 PM 8.4805 -55.4583 140° Southeast  Level Estimated
Thu 05:50:00 PM 8.3967 -55.3866 140° Southeast  Level Estimated
Thu 05:51:00 PM 8.3129 -55.3149 140° Southeast  Level Estimated
Thu 05:52:00 PM 8.2290 -55.2433 140° Southeast  Level Estimated
Thu 05:53:00 PM 8.1452 -55.1717 140° Southeast  Level Estimated
Thu 05:54:00 PM 8.0613 -55.1002 140° Southeast  Level Estimated
Thu 05:55:00 PM 7.9775 -55.0286 140° Southeast  Level Estimated
Thu 05:56:00 PM 7.8936 -54.9571 140° Southeast  Level Estimated
Thu 05:57:00 PM 7.8097 -54.8857 140° Southeast  Level Estimated
Thu 05:58:00 PM 7.7258 -54.8142 140° Southeast  Level Estimated
Thu 05:59:00 PM 7.6419 -54.7428 140° Southeast  Level Estimated
Thu 06:00:00 PM 7.5579 -54.6714 140° Southeast  Level Estimated
Thu 06:01:00 PM 7.4740 -54.6001 140° Southeast  Level Estimated
Thu 06:02:00 PM 7.3900 -54.5287 140° Southeast  Level Estimated
Thu 06:03:00 PM 7.3061 -54.4574 140° Southeast  Level Estimated
Thu 06:04:00 PM 7.2221 -54.3861 140° Southeast  Level Estimated
Thu 06:05:00 PM 7.1381 -54.3149 140° Southeast  Level Estimated
Thu 06:06:00 PM 7.0541 -54.2436 140° Southeast  Level Estimated
Thu 06:07:00 PM 6.9701 -54.1724 140° Southeast  Level Estimated
Thu 06:08:00 PM 6.8861 -54.1013 140° Southeast  Level Estimated
Thu 06:09:00 PM 6.8021 -54.0301 140° Southeast  Level Estimated
Thu 06:10:00 PM 6.7180 -53.9590 140° Southeast  Level Estimated
Thu 06:11:00 PM 6.6340 -53.8879 140° Southeast  Level Estimated
Thu 06:12:00 PM 6.5499 -53.8168 140° Southeast  Level Estimated
Thu 06:13:00 PM 6.4658 -53.7458 140° Southeast  Level Estimated
Thu 06:14:00 PM 6.3818 -53.6747 140° Southeast  Level Estimated
Thu 06:15:00 PM 6.2977 -53.6037 140° Southeast  Level Estimated
Thu 06:16:00 PM 6.2136 -53.5327 140° Southeast  Level Estimated
Thu 06:17:00 PM 6.1294 -53.4618 140° Southeast  Level Estimated
Thu 06:18:00 PM 6.0453 -53.3908 140° Southeast  Level Estimated
Thu 06:19:00 PM 5.9612 -53.3199 140° Southeast  Level Estimated
Thu 06:20:00 PM 5.8771 -53.2490 140° Southeast  Level Estimated
Thu 06:21:00 PM 5.7929 -53.1781 140° Southeast  Level Estimated
Thu 06:22:00 PM 5.7088 -53.1073 140° Southeast  Level Estimated
Thu 06:23:00 PM 5.6246 -53.0364 140° Southeast  Level Estimated
Thu 06:24:00 PM 5.5404 -52.9656 140° Southeast  Level Estimated
Thu 06:25:00 PM 5.4563 -52.8949 140° Southeast  Level Estimated
Thu 06:26:00 PM 5.3721 -52.8241 140° Southeast  Level Estimated
Thu 06:27:00 PM 5.2879 -52.7533 140° Southeast  Level Estimated
Thu 06:28:00 PM 5.2037 -52.6826 140° Southeast  Level Estimated
Thu 06:29:00 PM 5.1180 -52.6107 140° Southeast  Level Estimated
Thu 06:30:00 PM 5.0323 -52.5387 140° Southeast  Level Estimated
Thu 06:31:00 PM 4.9467 -52.4668 140° Southeast  Level Estimated
Thu 06:32:00 PM 4.8610 -52.3950 140° Southeast  Level Estimated

Login

Don't have an account? Register now (free) for customized features, flight alerts, and more!